sensor_id;sensor_type;location;lat;lon;timestamp;P1;durP1;ratioP1;P2;durP2;ratioP2
6203;SDS011;3135;42.602;23.468;2023-07-08T00:00:41;14.45;;;9.13;;
6203;SDS011;3135;42.602;23.468;2023-07-08T00:03:07;15.43;;;10.10;;
6203;SDS011;3135;42.602;23.468;2023-07-08T00:05:34;14.88;;;9.27;;
6203;SDS011;3135;42.602;23.468;2023-07-08T00:08:00;15.25;;;9.40;;
6203;SDS011;3135;42.602;23.468;2023-07-08T00:10:27;15.85;;;10.00;;
6203;SDS011;3135;42.602;23.468;2023-07-08T00:12:54;14.93;;;9.35;;
6203;SDS011;3135;42.602;23.468;2023-07-08T00:15:22;20.08;;;10.95;;
6203;SDS011;3135;42.602;23.468;2023-07-08T00:17:54;19.20;;;11.07;;
6203;SDS011;3135;42.602;23.468;2023-07-08T00:20:20;19.73;;;11.73;;
6203;SDS011;3135;42.602;23.468;2023-07-08T00:22:47;19.35;;;11.57;;
6203;SDS011;3135;42.602;23.468;2023-07-08T00:25:15;21.42;;;11.07;;
6203;SDS011;3135;42.602;23.468;2023-07-08T00:27:46;18.30;;;11.48;;
6203;SDS011;3135;42.602;23.468;2023-07-08T00:30:20;20.58;;;11.40;;
6203;SDS011;3135;42.602;23.468;2023-07-08T00:32:48;18.70;;;11.70;;
6203;SDS011;3135;42.602;23.468;2023-07-08T00:35:18;21.40;;;12.32;;
6203;SDS011;3135;42.602;23.468;2023-07-08T00:38:22;20.05;;;12.25;;
6203;SDS011;3135;42.602;23.468;2023-07-08T00:43:39;19.27;;;11.73;;
6203;SDS011;3135;42.602;23.468;2023-07-08T00:49:01;21.42;;;12.73;;
6203;SDS011;3135;42.602;23.468;2023-07-08T00:51:37;19.42;;;12.25;;
6203;SDS011;3135;42.602;23.468;2023-07-08T00:54:05;18.13;;;11.55;;
6203;SDS011;3135;42.602;23.468;2023-07-08T00:56:40;19.67;;;12.33;;
6203;SDS011;3135;42.602;23.468;2023-07-08T00:59:57;19.17;;;12.10;;
6203;SDS011;3135;42.602;23.468;2023-07-08T01:01:59;20.93;;;12.47;;
6203;SDS011;3135;42.602;23.468;2023-07-08T01:04:34;21.38;;;12.52;;
6203;SDS011;3135;42.602;23.468;2023-07-08T01:07:10;17.42;;;11.60;;
6203;SDS011;3135;42.602;23.468;2023-07-08T01:09:37;20.07;;;12.30;;
6203;SDS011;3135;42.602;23.468;2023-07-08T01:12:08;20.05;;;12.07;;
6203;SDS011;3135;42.602;23.468;2023-07-08T01:14:38;18.73;;;11.82;;
6203;SDS011;3135;42.602;23.468;2023-07-08T01:17:07;20.30;;;12.35;;
6203;SDS011;3135;42.602;23.468;2023-07-08T01:19:38;18.08;;;12.15;;
6203;SDS011;3135;42.602;23.468;2023-07-08T01:22:06;17.93;;;11.57;;
6203;SDS011;3135;42.602;23.468;2023-07-08T01:24:37;18.60;;;11.95;;
6203;SDS011;3135;42.602;23.468;2023-07-08T01:27:06;19.55;;;12.32;;
6203;SDS011;3135;42.602;23.468;2023-07-08T01:29:33;18.38;;;12.00;;
6203;SDS011;3135;42.602;23.468;2023-07-08T01:31:59;18.23;;;11.70;;
6203;SDS011;3135;42.602;23.468;2023-07-08T01:34:28;15.40;;;11.02;;
6203;SDS011;3135;42.602;23.468;2023-07-08T01:36:57;19.77;;;12.52;;
6203;SDS011;3135;42.602;23.468;2023-07-08T01:39:27;19.15;;;11.63;;
6203;SDS011;3135;42.602;23.468;2023-07-08T01:41:55;21.50;;;12.18;;
6203;SDS011;3135;42.602;23.468;2023-07-08T01:46:52;17.25;;;10.77;;
6203;SDS011;3135;42.602;23.468;2023-07-08T01:49:22;17.70;;;11.98;;
6203;SDS011;3135;42.602;23.468;2023-07-08T01:51:48;21.80;;;11.40;;
6203;SDS011;3135;42.602;23.468;2023-07-08T01:54:15;16.67;;;10.95;;
6203;SDS011;3135;42.602;23.468;2023-07-08T01:56:40;16.37;;;11.03;;
6203;SDS011;3135;42.602;23.468;2023-07-08T01:59:06;19.70;;;11.23;;
6203;SDS011;3135;42.602;23.468;2023-07-08T02:01:31;15.83;;;10.97;;
6203;SDS011;3135;42.602;23.468;2023-07-08T02:03:56;17.85;;;11.00;;
6203;SDS011;3135;42.602;23.468;2023-07-08T02:06:22;18.13;;;11.63;;
6203;SDS011;3135;42.602;23.468;2023-07-08T02:08:47;16.90;;;11.07;;
6203;SDS011;3135;42.602;23.468;2023-07-08T02:11:13;19.33;;;11.27;;
6203;SDS011;3135;42.602;23.468;2023-07-08T02:13:38;17.42;;;11.48;;
6203;SDS011;3135;42.602;23.468;2023-07-08T02:16:06;17.63;;;11.30;;
6203;SDS011;3135;42.602;23.468;2023-07-08T02:18:32;18.05;;;11.40;;
6203;SDS011;3135;42.602;23.468;2023-07-08T02:20:57;16.73;;;11.23;;
6203;SDS011;3135;42.602;23.468;2023-07-08T02:23:23;19.60;;;10.90;;
6203;SDS011;3135;42.602;23.468;2023-07-08T02:25:51;17.70;;;11.40;;
6203;SDS011;3135;42.602;23.468;2023-07-08T02:28:17;15.05;;;10.27;;
6203;SDS011;3135;42.602;23.468;2023-07-08T02:30:43;16.57;;;11.00;;
6203;SDS011;3135;42.602;23.468;2023-07-08T02:33:08;15.10;;;10.80;;
6203;SDS011;3135;42.602;23.468;2023-07-08T02:35:35;18.70;;;10.82;;
6203;SDS011;3135;42.602;23.468;2023-07-08T02:38:00;15.63;;;10.40;;
6203;SDS011;3135;42.602;23.468;2023-07-08T02:40:26;17.00;;;10.27;;
6203;SDS011;3135;42.602;23.468;2023-07-08T02:42:51;17.43;;;10.67;;
6203;SDS011;3135;42.602;23.468;2023-07-08T02:45:17;15.23;;;10.00;;
6203;SDS011;3135;42.602;23.468;2023-07-08T02:47:43;17.63;;;10.37;;
6203;SDS011;3135;42.602;23.468;2023-07-08T02:50:09;13.82;;;9.80;;
6203;SDS011;3135;42.602;23.468;2023-07-08T02:52:35;15.85;;;9.63;;
6203;SDS011;3135;42.602;23.468;2023-07-08T02:55:01;15.98;;;10.80;;
6203;SDS011;3135;42.602;23.468;2023-07-08T02:57:27;16.65;;;10.63;;
6203;SDS011;3135;42.602;23.468;2023-07-08T02:59:52;16.27;;;10.50;;
6203;SDS011;3135;42.602;23.468;2023-07-08T03:02:18;14.90;;;10.37;;
6203;SDS011;3135;42.602;23.468;2023-07-08T03:04:43;17.10;;;10.70;;
6203;SDS011;3135;42.602;23.468;2023-07-08T03:07:10;15.20;;;10.20;;
6203;SDS011;3135;42.602;23.468;2023-07-08T03:09:39;16.67;;;10.77;;
6203;SDS011;3135;42.602;23.468;2023-07-08T03:12:05;16.42;;;10.27;;
6203;SDS011;3135;42.602;23.468;2023-07-08T03:14:32;15.52;;;9.98;;
6203;SDS011;3135;42.602;23.468;2023-07-08T03:16:57;15.77;;;10.70;;
6203;SDS011;3135;42.602;23.468;2023-07-08T03:19:23;16.07;;;10.70;;
6203;SDS011;3135;42.602;23.468;2023-07-08T03:21:48;18.13;;;10.67;;
6203;SDS011;3135;42.602;23.468;2023-07-08T03:24:14;16.83;;;10.47;;
6203;SDS011;3135;42.602;23.468;2023-07-08T03:26:43;14.55;;;9.50;;
6203;SDS011;3135;42.602;23.468;2023-07-08T03:29:18;15.88;;;10.05;;
6203;SDS011;3135;42.602;23.468;2023-07-08T03:31:44;15.52;;;10.77;;
6203;SDS011;3135;42.602;23.468;2023-07-08T03:34:13;16.25;;;10.25;;
6203;SDS011;3135;42.602;23.468;2023-07-08T03:36:44;15.23;;;10.52;;
6203;SDS011;3135;42.602;23.468;2023-07-08T03:39:13;18.63;;;10.30;;
6203;SDS011;3135;42.602;23.468;2023-07-08T03:41:39;13.63;;;9.65;;
6203;SDS011;3135;42.602;23.468;2023-07-08T03:44:05;15.32;;;9.50;;
6203;SDS011;3135;42.602;23.468;2023-07-08T03:46:30;14.97;;;9.87;;
6203;SDS011;3135;42.602;23.468;2023-07-08T03:48:56;16.13;;;9.47;;
6203;SDS011;3135;42.602;23.468;2023-07-08T03:51:28;12.45;;;8.63;;
6203;SDS011;3135;42.602;23.468;2023-07-08T03:53:55;13.13;;;9.35;;
6203;SDS011;3135;42.602;23.468;2023-07-08T03:56:20;12.13;;;8.30;;
6203;SDS011;3135;42.602;23.468;2023-07-08T03:58:46;10.97;;;8.30;;
6203;SDS011;3135;42.602;23.468;2023-07-08T04:01:18;13.20;;;8.63;;
6203;SDS011;3135;42.602;23.468;2023-07-08T04:03:46;11.45;;;8.73;;
6203;SDS011;3135;42.602;23.468;2023-07-08T04:06:12;11.30;;;8.10;;
6203;SDS011;3135;42.602;23.468;2023-07-08T04:08:38;11.82;;;8.18;;
6203;SDS011;3135;42.602;23.468;2023-07-08T04:11:03;11.30;;;8.10;;
6203;SDS011;3135;42.602;23.468;2023-07-08T04:13:29;12.47;;;8.17;;
6203;SDS011;3135;42.602;23.468;2023-07-08T04:15:56;11.23;;;8.13;;
6203;SDS011;3135;42.602;23.468;2023-07-08T04:18:24;13.75;;;8.63;;
6203;SDS011;3135;42.602;23.468;2023-07-08T04:20:50;9.75;;;7.38;;
6203;SDS011;3135;42.602;23.468;2023-07-08T04:23:21;11.93;;;7.60;;
6203;SDS011;3135;42.602;23.468;2023-07-08T04:25:50;9.40;;;6.93;;
6203;SDS011;3135;42.602;23.468;2023-07-08T04:28:18;10.70;;;7.22;;
6203;SDS011;3135;42.602;23.468;2023-07-08T04:30:44;9.07;;;7.28;;
6203;SDS011;3135;42.602;23.468;2023-07-08T04:33:11;9.10;;;6.60;;
6203;SDS011;3135;42.602;23.468;2023-07-08T04:35:37;9.25;;;6.68;;
6203;SDS011;3135;42.602;23.468;2023-07-08T04:38:14;9.80;;;6.40;;
6203;SDS011;3135;42.602;23.468;2023-07-08T04:40:43;10.18;;;7.05;;
6203;SDS011;3135;42.602;23.468;2023-07-08T04:43:09;10.25;;;6.57;;
6203;SDS011;3135;42.602;23.468;2023-07-08T04:45:36;9.27;;;6.82;;
6203;SDS011;3135;42.602;23.468;2023-07-08T04:48:02;9.60;;;6.60;;
6203;SDS011;3135;42.602;23.468;2023-07-08T04:50:33;11.00;;;6.70;;
6203;SDS011;3135;42.602;23.468;2023-07-08T04:52:59;9.93;;;7.07;;
6203;SDS011;3135;42.602;23.468;2023-07-08T04:55:25;9.07;;;6.70;;
6203;SDS011;3135;42.602;23.468;2023-07-08T04:57:50;8.17;;;6.60;;
6203;SDS011;3135;42.602;23.468;2023-07-08T05:00:16;11.40;;;6.90;;
6203;SDS011;3135;42.602;23.468;2023-07-08T05:02:44;10.13;;;7.00;;
6203;SDS011;3135;42.602;23.468;2023-07-08T05:05:10;11.50;;;7.43;;
6203;SDS011;3135;42.602;23.468;2023-07-08T05:07:35;13.63;;;7.83;;
6203;SDS011;3135;42.602;23.468;2023-07-08T05:10:01;9.80;;;7.50;;
6203;SDS011;3135;42.602;23.468;2023-07-08T05:12:26;9.93;;;7.40;;
6203;SDS011;3135;42.602;23.468;2023-07-08T05:14:52;11.23;;;7.43;;
6203;SDS011;3135;42.602;23.468;2023-07-08T05:17:17;8.20;;;6.75;;
6203;SDS011;3135;42.602;23.468;2023-07-08T05:19:43;12.83;;;7.20;;
6203;SDS011;3135;42.602;23.468;2023-07-08T05:22:10;9.27;;;6.82;;
6203;SDS011;3135;42.602;23.468;2023-07-08T05:24:36;10.23;;;7.23;;
6203;SDS011;3135;42.602;23.468;2023-07-08T05:27:02;9.27;;;7.00;;
6203;SDS011;3135;42.602;23.468;2023-07-08T05:29:28;11.82;;;7.07;;
6203;SDS011;3135;42.602;23.468;2023-07-08T05:31:53;9.53;;;7.33;;
6203;SDS011;3135;42.602;23.468;2023-07-08T05:34:19;11.60;;;6.90;;
6203;SDS011;3135;42.602;23.468;2023-07-08T05:36:44;9.90;;;7.07;;
6203;SDS011;3135;42.602;23.468;2023-07-08T05:39:10;7.97;;;6.77;;
6203;SDS011;3135;42.602;23.468;2023-07-08T05:41:36;11.02;;;6.90;;
6203;SDS011;3135;42.602;23.468;2023-07-08T05:44:01;9.23;;;6.60;;
6203;SDS011;3135;42.602;23.468;2023-07-08T05:46:27;8.33;;;6.60;;
6203;SDS011;3135;42.602;23.468;2023-07-08T05:48:52;10.50;;;6.10;;
6203;SDS011;3135;42.602;23.468;2023-07-08T05:51:19;8.60;;;7.30;;
6203;SDS011;3135;42.602;23.468;2023-07-08T05:53:44;9.27;;;6.18;;
6203;SDS011;3135;42.602;23.468;2023-07-08T05:56:10;7.35;;;5.85;;
6203;SDS011;3135;42.602;23.468;2023-07-08T05:58:35;9.57;;;6.30;;
6203;SDS011;3135;42.602;23.468;2023-07-08T06:01:00;7.17;;;5.60;;
6203;SDS011;3135;42.602;23.468;2023-07-08T06:03:26;13.10;;;10.13;;
6203;SDS011;3135;42.602;23.468;2023-07-08T06:05:52;9.27;;;5.73;;
6203;SDS011;3135;42.602;23.468;2023-07-08T06:08:17;7.80;;;5.97;;
6203;SDS011;3135;42.602;23.468;2023-07-08T06:10:43;10.37;;;5.30;;
6203;SDS011;3135;42.602;23.468;2023-07-08T06:13:10;8.60;;;6.13;;
6203;SDS011;3135;42.602;23.468;2023-07-08T06:15:36;7.93;;;5.82;;
6203;SDS011;3135;42.602;23.468;2023-07-08T06:18:02;10.13;;;5.63;;
6203;SDS011;3135;42.602;23.468;2023-07-08T06:20:28;7.38;;;5.78;;
6203;SDS011;3135;42.602;23.468;2023-07-08T06:22:54;8.33;;;5.53;;
6203;SDS011;3135;42.602;23.468;2023-07-08T06:25:19;7.43;;;5.80;;
6203;SDS011;3135;42.602;23.468;2023-07-08T06:27:45;9.67;;;5.97;;
6203;SDS011;3135;42.602;23.468;2023-07-08T06:30:11;7.47;;;5.37;;
6203;SDS011;3135;42.602;23.468;2023-07-08T06:32:36;7.22;;;5.80;;
6203;SDS011;3135;42.602;23.468;2023-07-08T06:35:02;8.18;;;5.43;;
6203;SDS011;3135;42.602;23.468;2023-07-08T06:37:28;8.70;;;5.38;;
6203;SDS011;3135;42.602;23.468;2023-07-08T06:39:54;6.53;;;4.82;;
6203;SDS011;3135;42.602;23.468;2023-07-08T06:42:19;7.32;;;5.35;;
6203;SDS011;3135;42.602;23.468;2023-07-08T06:44:44;9.87;;;5.67;;
6203;SDS011;3135;42.602;23.468;2023-07-08T06:47:16;7.60;;;5.57;;
6203;SDS011;3135;42.602;23.468;2023-07-08T06:49:42;7.10;;;5.80;;
6203;SDS011;3135;42.602;23.468;2023-07-08T06:52:08;6.03;;;5.37;;
6203;SDS011;3135;42.602;23.468;2023-07-08T06:54:34;12.90;;;7.17;;
6203;SDS011;3135;42.602;23.468;2023-07-08T06:56:59;6.95;;;5.38;;
6203;SDS011;3135;42.602;23.468;2023-07-08T06:59:24;8.03;;;5.47;;
6203;SDS011;3135;42.602;23.468;2023-07-08T07:01:50;6.03;;;5.00;;
6203;SDS011;3135;42.602;23.468;2023-07-08T07:04:15;8.48;;;5.40;;
6203;SDS011;3135;42.602;23.468;2023-07-08T07:06:41;6.60;;;5.10;;
6203;SDS011;3135;42.602;23.468;2023-07-08T07:09:06;7.63;;;5.90;;
6203;SDS011;3135;42.602;23.468;2023-07-08T07:11:31;7.00;;;5.10;;
6203;SDS011;3135;42.602;23.468;2023-07-08T07:13:57;8.50;;;5.20;;
6203;SDS011;3135;42.602;23.468;2023-07-08T07:16:22;6.53;;;5.07;;
6203;SDS011;3135;42.602;23.468;2023-07-08T07:18:48;8.95;;;5.05;;
6203;SDS011;3135;42.602;23.468;2023-07-08T07:21:14;7.43;;;5.07;;
6203;SDS011;3135;42.602;23.468;2023-07-08T07:23:40;8.67;;;5.10;;
6203;SDS011;3135;42.602;23.468;2023-07-08T07:26:05;5.90;;;4.87;;
6203;SDS011;3135;42.602;23.468;2023-07-08T07:28:32;7.63;;;4.72;;
6203;SDS011;3135;42.602;23.468;2023-07-08T07:30:58;7.78;;;4.65;;
6203;SDS011;3135;42.602;23.468;2023-07-08T07:33:25;6.10;;;4.50;;
6203;SDS011;3135;42.602;23.468;2023-07-08T07:35:51;6.10;;;4.80;;
6203;SDS011;3135;42.602;23.468;2023-07-08T07:38:16;13.40;;;5.22;;
6203;SDS011;3135;42.602;23.468;2023-07-08T07:40:42;7.40;;;5.00;;
6203;SDS011;3135;42.602;23.468;2023-07-08T07:43:08;5.35;;;4.65;;
6203;SDS011;3135;42.602;23.468;2023-07-08T07:45:34;6.85;;;4.63;;
6203;SDS011;3135;42.602;23.468;2023-07-08T07:48:00;5.38;;;4.88;;
6203;SDS011;3135;42.602;23.468;2023-07-08T07:50:26;5.88;;;4.97;;
6203;SDS011;3135;42.602;23.468;2023-07-08T07:52:52;8.37;;;5.13;;
6203;SDS011;3135;42.602;23.468;2023-07-08T07:55:17;5.40;;;4.90;;
6203;SDS011;3135;42.602;23.468;2023-07-08T07:57:43;6.45;;;5.32;;
6203;SDS011;3135;42.602;23.468;2023-07-08T08:00:10;8.37;;;5.23;;
6203;SDS011;3135;42.602;23.468;2023-07-08T08:02:36;5.28;;;4.78;;
6203;SDS011;3135;42.602;23.468;2023-07-08T08:05:02;6.57;;;5.10;;
6203;SDS011;3135;42.602;23.468;2023-07-08T08:07:27;5.93;;;5.33;;
6203;SDS011;3135;42.602;23.468;2023-07-08T08:09:53;8.33;;;5.57;;
6203;SDS011;3135;42.602;23.468;2023-07-08T08:12:18;8.30;;;5.20;;
6203;SDS011;3135;42.602;23.468;2023-07-08T08:14:44;5.20;;;4.70;;
6203;SDS011;3135;42.602;23.468;2023-07-08T08:17:09;7.03;;;4.82;;
6203;SDS011;3135;42.602;23.468;2023-07-08T08:19:35;8.03;;;5.40;;
6203;SDS011;3135;42.602;23.468;2023-07-08T08:22:00;11.00;;;5.57;;
6203;SDS011;3135;42.602;23.468;2023-07-08T08:24:26;4.82;;;4.32;;
6203;SDS011;3135;42.602;23.468;2023-07-08T08:26:51;4.57;;;4.17;;
6203;SDS011;3135;42.602;23.468;2023-07-08T08:29:17;5.23;;;4.63;;
6203;SDS011;3135;42.602;23.468;2023-07-08T08:31:42;5.63;;;4.65;;
6203;SDS011;3135;42.602;23.468;2023-07-08T08:34:08;6.10;;;5.20;;
6203;SDS011;3135;42.602;23.468;2023-07-08T08:36:35;5.40;;;4.88;;
6203;SDS011;3135;42.602;23.468;2023-07-08T08:39:00;5.40;;;4.90;;
6203;SDS011;3135;42.602;23.468;2023-07-08T08:41:29;5.93;;;5.20;;
6203;SDS011;3135;42.602;23.468;2023-07-08T08:43:56;5.53;;;4.90;;
6203;SDS011;3135;42.602;23.468;2023-07-08T08:51:50;7.13;;;5.20;;
6203;SDS011;3135;42.602;23.468;2023-07-08T08:54:17;8.05;;;5.47;;
6203;SDS011;3135;42.602;23.468;2023-07-08T08:59:51;8.15;;;4.60;;
6203;SDS011;3135;42.602;23.468;2023-07-08T09:05:24;5.03;;;4.25;;
6203;SDS011;3135;42.602;23.468;2023-07-08T09:10:29;5.00;;;4.50;;
6203;SDS011;3135;42.602;23.468;2023-07-08T09:13:19;5.07;;;4.57;;
6203;SDS011;3135;42.602;23.468;2023-07-08T09:15:51;5.00;;;4.40;;
6203;SDS011;3135;42.602;23.468;2023-07-08T09:18:33;5.55;;;4.53;;
6203;SDS011;3135;42.602;23.468;2023-07-08T09:21:13;5.18;;;4.45;;
6203;SDS011;3135;42.602;23.468;2023-07-08T09:23:49;4.72;;;4.25;;
6203;SDS011;3135;42.602;23.468;2023-07-08T09:26:22;5.93;;;4.25;;
6203;SDS011;3135;42.602;23.468;2023-07-08T09:28:49;5.85;;;4.30;;
6203;SDS011;3135;42.602;23.468;2023-07-08T09:31:22;5.13;;;4.07;;
6203;SDS011;3135;42.602;23.468;2023-07-08T09:33:53;5.78;;;4.40;;
6203;SDS011;3135;42.602;23.468;2023-07-08T09:36:32;6.43;;;4.60;;
6203;SDS011;3135;42.602;23.468;2023-07-08T09:38:58;6.50;;;4.40;;
6203;SDS011;3135;42.602;23.468;2023-07-08T09:41:29;9.18;;;7.97;;
6203;SDS011;3135;42.602;23.468;2023-07-08T09:44:03;7.22;;;4.22;;
6203;SDS011;3135;42.602;23.468;2023-07-08T09:46:34;5.97;;;3.80;;
6203;SDS011;3135;42.602;23.468;2023-07-08T09:49:09;4.65;;;4.30;;
6203;SDS011;3135;42.602;23.468;2023-07-08T09:51:41;6.40;;;4.13;;
6203;SDS011;3135;42.602;23.468;2023-07-08T09:54:07;5.80;;;4.60;;
6203;SDS011;3135;42.602;23.468;2023-07-08T09:56:33;4.78;;;4.28;;
6203;SDS011;3135;42.602;23.468;2023-07-08T09:58:59;5.15;;;4.20;;
6203;SDS011;3135;42.602;23.468;2023-07-08T10:01:25;4.28;;;3.72;;
6203;SDS011;3135;42.602;23.468;2023-07-08T10:03:57;4.60;;;4.20;;
6203;SDS011;3135;42.602;23.468;2023-07-08T10:06:27;4.65;;;4.10;;
6203;SDS011;3135;42.602;23.468;2023-07-08T10:09:00;3.70;;;3.45;;
6203;SDS011;3135;42.602;23.468;2023-07-08T10:11:29;4.65;;;3.97;;
6203;SDS011;3135;42.602;23.468;2023-07-08T10:14:01;5.65;;;3.90;;
6203;SDS011;3135;42.602;23.468;2023-07-08T10:16:31;4.50;;;4.10;;
6203;SDS011;3135;42.602;23.468;2023-07-08T10:18:58;4.30;;;3.90;;
6203;SDS011;3135;42.602;23.468;2023-07-08T10:27:15;4.03;;;3.63;;
6203;SDS011;3135;42.602;23.468;2023-07-08T10:29:49;4.45;;;3.83;;
6203;SDS011;3135;42.602;23.468;2023-07-08T10:32:24;4.00;;;3.60;;
6203;SDS011;3135;42.602;23.468;2023-07-08T10:35:04;3.47;;;3.17;;
6203;SDS011;3135;42.602;23.468;2023-07-08T10:40:34;3.90;;;3.60;;
6203;SDS011;3135;42.602;23.468;2023-07-08T10:43:18;3.60;;;3.30;;
6203;SDS011;3135;42.602;23.468;2023-07-08T10:56:53;3.25;;;3.03;;
6203;SDS011;3135;42.602;23.468;2023-07-08T10:59:31;3.58;;;3.28;;
6203;SDS011;3135;42.602;23.468;2023-07-08T11:10:52;3.45;;;3.00;;
6203;SDS011;3135;42.602;23.468;2023-07-08T11:13:24;4.45;;;3.20;;
6203;SDS011;3135;42.602;23.468;2023-07-08T11:21:24;3.85;;;3.33;;
6203;SDS011;3135;42.602;23.468;2023-07-08T11:26:49;4.07;;;3.03;;
6203;SDS011;3135;42.602;23.468;2023-07-08T11:29:19;3.28;;;3.08;;
6203;SDS011;3135;42.602;23.468;2023-07-08T11:31:49;4.50;;;3.20;;
6203;SDS011;3135;42.602;23.468;2023-07-08T11:34:19;3.20;;;3.00;;
6203;SDS011;3135;42.602;23.468;2023-07-08T11:36:46;3.55;;;3.25;;
6203;SDS011;3135;42.602;23.468;2023-07-08T11:39:27;4.03;;;3.40;;
6203;SDS011;3135;42.602;23.468;2023-07-08T11:41:55;4.40;;;3.43;;
6203;SDS011;3135;42.602;23.468;2023-07-08T11:44:48;3.33;;;3.03;;
6203;SDS011;3135;42.602;23.468;2023-07-08T11:47:41;3.45;;;3.20;;
6203;SDS011;3135;42.602;23.468;2023-07-08T11:50:31;3.50;;;3.30;;
6203;SDS011;3135;42.602;23.468;2023-07-08T11:56:30;3.28;;;3.08;;
6203;SDS011;3135;42.602;23.468;2023-07-08T12:03:49;3.50;;;3.20;;
6203;SDS011;3135;42.602;23.468;2023-07-08T12:08:52;3.30;;;3.00;;
6203;SDS011;3135;42.602;23.468;2023-07-08T12:11:18;3.53;;;3.33;;
6203;SDS011;3135;42.602;23.468;2023-07-08T12:13:49;3.58;;;3.28;;
6203;SDS011;3135;42.602;23.468;2023-07-08T12:16:20;3.72;;;3.42;;
6203;SDS011;3135;42.602;23.468;2023-07-08T12:18:46;3.92;;;3.53;;
6203;SDS011;3135;42.602;23.468;2023-07-08T12:21:14;4.65;;;3.20;;
6203;SDS011;3135;42.602;23.468;2023-07-08T12:23:47;3.28;;;3.03;;
6203;SDS011;3135;42.602;23.468;2023-07-08T12:26:13;3.35;;;3.00;;
6203;SDS011;3135;42.602;23.468;2023-07-08T12:28:40;3.50;;;3.20;;
6203;SDS011;3135;42.602;23.468;2023-07-08T12:31:16;3.63;;;3.22;;
6203;SDS011;3135;42.602;23.468;2023-07-08T12:33:46;3.10;;;2.90;;
6203;SDS011;3135;42.602;23.468;2023-07-08T12:36:14;3.25;;;2.65;;
6203;SDS011;3135;42.602;23.468;2023-07-08T12:38:51;4.10;;;2.88;;
6203;SDS011;3135;42.602;23.468;2023-07-08T12:41:21;3.22;;;2.92;;
6203;SDS011;3135;42.602;23.468;2023-07-08T12:43:50;3.27;;;2.97;;
6203;SDS011;3135;42.602;23.468;2023-07-08T12:46:17;3.20;;;2.90;;
6203;SDS011;3135;42.602;23.468;2023-07-08T12:48:46;3.10;;;2.80;;
6203;SDS011;3135;42.602;23.468;2023-07-08T12:51:16;4.05;;;2.70;;
6203;SDS011;3135;42.602;23.468;2023-07-08T12:53:45;3.00;;;2.80;;
6203;SDS011;3135;42.602;23.468;2023-07-08T12:56:11;2.95;;;2.60;;
6203;SDS011;3135;42.602;23.468;2023-07-08T12:58:38;4.20;;;2.73;;
6203;SDS011;3135;42.602;23.468;2023-07-08T13:01:06;2.80;;;2.50;;
6203;SDS011;3135;42.602;23.468;2023-07-08T13:03:37;3.50;;;3.00;;
6203;SDS011;3135;42.602;23.468;2023-07-08T13:06:08;3.28;;;2.70;;
6203;SDS011;3135;42.602;23.468;2023-07-08T13:08:37;2.80;;;2.60;;
6203;SDS011;3135;42.602;23.468;2023-07-08T13:11:03;3.58;;;2.60;;
6203;SDS011;3135;42.602;23.468;2023-07-08T13:13:34;3.63;;;3.33;;
6203;SDS011;3135;42.602;23.468;2023-07-08T13:16:05;2.92;;;2.40;;
6203;SDS011;3135;42.602;23.468;2023-07-08T13:18:32;2.42;;;2.22;;
6203;SDS011;3135;42.602;23.468;2023-07-08T13:21:00;3.85;;;2.50;;
6203;SDS011;3135;42.602;23.468;2023-07-08T13:23:28;3.05;;;2.75;;
6203;SDS011;3135;42.602;23.468;2023-07-08T13:25:54;2.90;;;2.20;;
6203;SDS011;3135;42.602;23.468;2023-07-08T13:28:30;2.88;;;2.33;;
6203;SDS011;3135;42.602;23.468;2023-07-08T13:31:17;2.85;;;2.42;;
6203;SDS011;3135;42.602;23.468;2023-07-08T13:33:49;3.63;;;2.35;;
6203;SDS011;3135;42.602;23.468;2023-07-08T13:36:18;3.07;;;2.33;;
6203;SDS011;3135;42.602;23.468;2023-07-08T13:38:49;4.93;;;2.60;;
6203;SDS011;3135;42.602;23.468;2023-07-08T13:41:18;4.95;;;2.50;;
6203;SDS011;3135;42.602;23.468;2023-07-08T13:43:47;2.60;;;2.20;;
6203;SDS011;3135;42.602;23.468;2023-07-08T13:49:48;2.30;;;2.10;;
6203;SDS011;3135;42.602;23.468;2023-07-08T13:52:04;2.38;;;2.15;;
6203;SDS011;3135;42.602;23.468;2023-07-08T13:57:18;2.22;;;2.08;;
6203;SDS011;3135;42.602;23.468;2023-07-08T13:59:47;4.18;;;2.10;;
6203;SDS011;3135;42.602;23.468;2023-07-08T14:02:20;2.50;;;2.30;;
6203;SDS011;3135;42.602;23.468;2023-07-08T14:04:49;2.38;;;2.17;;
6203;SDS011;3135;42.602;23.468;2023-07-08T14:07:22;2.30;;;2.10;;
6203;SDS011;3135;42.602;23.468;2023-07-08T14:09:50;5.15;;;2.30;;
6203;SDS011;3135;42.602;23.468;2023-07-08T14:12:15;2.72;;;1.98;;
6203;SDS011;3135;42.602;23.468;2023-07-08T14:14:41;2.60;;;2.10;;
6203;SDS011;3135;42.602;23.468;2023-07-08T14:17:10;3.60;;;2.10;;
6203;SDS011;3135;42.602;23.468;2023-07-08T14:19:39;3.22;;;2.30;;
6203;SDS011;3135;42.602;23.468;2023-07-08T14:24:42;3.10;;;2.30;;
6203;SDS011;3135;42.602;23.468;2023-07-08T14:27:09;2.40;;;2.20;;
6203;SDS011;3135;42.602;23.468;2023-07-08T14:29:37;3.60;;;2.15;;
6203;SDS011;3135;42.602;23.468;2023-07-08T14:32:04;2.40;;;2.10;;
6203;SDS011;3135;42.602;23.468;2023-07-08T14:34:30;2.70;;;2.35;;
6203;SDS011;3135;42.602;23.468;2023-07-08T14:36:58;2.97;;;2.30;;
6203;SDS011;3135;42.602;23.468;2023-07-08T14:39:23;3.20;;;2.00;;
6203;SDS011;3135;42.602;23.468;2023-07-08T14:41:49;2.50;;;2.30;;
6203;SDS011;3135;42.602;23.468;2023-07-08T14:46:43;4.85;;;2.30;;
6203;SDS011;3135;42.602;23.468;2023-07-08T14:49:16;3.00;;;2.20;;
6203;SDS011;3135;42.602;23.468;2023-07-08T14:51:46;2.90;;;2.13;;
6203;SDS011;3135;42.602;23.468;2023-07-08T14:54:12;2.40;;;2.20;;
6203;SDS011;3135;42.602;23.468;2023-07-08T14:56:38;3.97;;;2.10;;
6203;SDS011;3135;42.602;23.468;2023-07-08T14:59:05;2.33;;;2.13;;
6203;SDS011;3135;42.602;23.468;2023-07-08T15:01:31;5.00;;;2.25;;
6203;SDS011;3135;42.602;23.468;2023-07-08T15:03:57;3.80;;;2.17;;
6203;SDS011;3135;42.602;23.468;2023-07-08T15:06:23;2.40;;;2.20;;
6203;SDS011;3135;42.602;23.468;2023-07-08T15:08:49;2.80;;;2.17;;
6203;SDS011;3135;42.602;23.468;2023-07-08T15:11:15;2.40;;;2.20;;
6203;SDS011;3135;42.602;23.468;2023-07-08T15:13:41;2.47;;;2.10;;
6203;SDS011;3135;42.602;23.468;2023-07-08T15:16:13;2.17;;;1.95;;
6203;SDS011;3135;42.602;23.468;2023-07-08T15:18:41;2.60;;;2.30;;
6203;SDS011;3135;42.602;23.468;2023-07-08T15:21:09;2.53;;;2.10;;
6203;SDS011;3135;42.602;23.468;2023-07-08T15:23:36;3.53;;;2.13;;
6203;SDS011;3135;42.602;23.468;2023-07-08T15:26:02;3.60;;;2.20;;
6203;SDS011;3135;42.602;23.468;2023-07-08T15:31:05;2.58;;;2.13;;
6203;SDS011;3135;42.602;23.468;2023-07-08T15:33:33;2.88;;;2.20;;
6203;SDS011;3135;42.602;23.468;2023-07-08T15:35:58;2.53;;;2.33;;
6203;SDS011;3135;42.602;23.468;2023-07-08T15:38:24;2.67;;;2.40;;
6203;SDS011;3135;42.602;23.468;2023-07-08T15:40:49;2.40;;;2.20;;
6203;SDS011;3135;42.602;23.468;2023-07-08T15:43:15;4.30;;;2.73;;
6203;SDS011;3135;42.602;23.468;2023-07-08T15:45:40;100.45;;;41.38;;
6203;SDS011;3135;42.602;23.468;2023-07-08T15:48:16;3.22;;;2.92;;
6203;SDS011;3135;42.602;23.468;2023-07-08T15:50:43;3.53;;;2.50;;
6203;SDS011;3135;42.602;23.468;2023-07-08T15:53:09;2.60;;;2.40;;
6203;SDS011;3135;42.602;23.468;2023-07-08T15:55:38;2.53;;;2.20;;
6203;SDS011;3135;42.602;23.468;2023-07-08T16:00:49;2.60;;;2.33;;
6203;SDS011;3135;42.602;23.468;2023-07-08T16:03:22;2.80;;;2.60;;
6203;SDS011;3135;42.602;23.468;2023-07-08T16:05:50;3.00;;;2.40;;
6203;SDS011;3135;42.602;23.468;2023-07-08T16:08:17;2.80;;;2.40;;
6203;SDS011;3135;42.602;23.468;2023-07-08T16:10:43;2.93;;;2.70;;
6203;SDS011;3135;42.602;23.468;2023-07-08T16:13:13;2.88;;;2.60;;
6203;SDS011;3135;42.602;23.468;2023-07-08T16:15:38;7.23;;;4.30;;
6203;SDS011;3135;42.602;23.468;2023-07-08T16:18:04;5.47;;;3.67;;
6203;SDS011;3135;42.602;23.468;2023-07-08T16:20:35;2.47;;;2.28;;
6203;SDS011;3135;42.602;23.468;2023-07-08T16:23:00;3.93;;;2.70;;
6203;SDS011;3135;42.602;23.468;2023-07-08T16:25:30;5.22;;;2.90;;